Time;durP1;ratioP1;P1;durP2;ratioP2;P2;SDS_P1;SDS_P2;PMS_P1;PMS_P2;Temp;Humidity;BMP_temperature;BMP_pressure;BME280_temperature;BME280_humidity;BME280_pressure;Samples;Min_cycle;Max_cycle;Signal;HPM_P1;HPM_P2
2023/10/29 00:00:11;;;;;;;1.48;1.00;;;10.30;99.90;;;;;;5026366;28;20048;-65
2023/10/29 00:02:38;;;;;;;2.22;0.93;;;10.40;99.90;;;;;;5031672;28;20391;-65
2023/10/29 00:05:04;;;;;;;1.25;0.75;;;10.40;99.90;;;;;;5041969;28;20486;-64
2023/10/29 00:07:30;;;;;;;3.50;0.98;;;10.40;99.90;;;;;;5012773;28;20124;-65
2023/10/29 00:09:55;;;;;;;2.22;1.10;;;10.40;99.90;;;;;;5019265;28;20132;-64
2023/10/29 00:12:21;;;;;;;1.25;1.08;;;10.40;99.90;;;;;;5024537;28;20513;-65
2023/10/29 00:14:47;;;;;;;2.72;0.80;;;10.40;99.90;;;;;;5044851;28;20102;-65
2023/10/29 00:17:13;;;;;;;1.13;1.00;;;10.50;99.90;;;;;;5047418;28;20084;-64
2023/10/29 00:19:39;;;;;;;1.73;1.10;;;10.40;99.90;;;;;;5028163;28;20087;-64
2023/10/29 00:22:05;;;;;;;1.00;0.90;;;10.50;99.90;;;;;;5043613;28;20049;-65
2023/10/29 00:24:31;;;;;;;0.80;0.80;;;10.50;99.90;;;;;;5031128;28;20045;-65
2023/10/29 00:26:56;;;;;;;2.55;0.95;;;10.50;99.90;;;;;;5046226;28;20120;-65
2023/10/29 00:29:22;;;;;;;0.98;0.77;;;10.50;99.90;;;;;;5048032;28;20119;-65
2023/10/29 00:31:48;;;;;;;2.58;0.60;;;10.50;99.90;;;;;;5043633;28;20132;-65
2023/10/29 00:34:14;;;;;;;0.60;0.60;;;10.60;99.90;;;;;;5045882;28;20053;-65
2023/10/29 00:36:40;;;;;;;1.05;0.88;;;10.70;99.90;;;;;;5049684;28;20044;-65
2023/10/29 00:39:07;;;;;;;2.40;1.10;;;10.60;99.90;;;;;;5050986;28;20099;-64
2023/10/29 00:41:33;;;;;;;2.00;0.65;;;10.60;99.90;;;;;;5049959;28;20490;-65
2023/10/29 00:43:58;;;;;;;2.10;0.80;;;10.70;99.90;;;;;;5040965;28;20100;-64
2023/10/29 00:46:25;;;;;;;3.83;0.90;;;10.70;99.90;;;;;;5045822;28;20605;-64
2023/10/29 00:48:51;;;;;;;1.13;1.05;;;10.70;99.90;;;;;;5062358;28;20106;-65
2023/10/29 00:51:17;;;;;;;1.85;0.80;;;10.60;99.90;;;;;;5064674;28;20090;-65
2023/10/29 00:53:44;;;;;;;2.67;0.60;;;10.70;99.90;;;;;;5050853;28;20036;-64
2023/10/29 00:56:12;;;;;;;0.93;0.60;;;10.70;99.90;;;;;;5070789;28;20402;-65
2023/10/29 00:58:38;;;;;;;1.35;0.90;;;10.80;99.90;;;;;;5050957;28;20098;-64
2023/10/29 01:01:05;;;;;;;0.70;0.65;;;10.80;99.90;;;;;;5064134;28;20123;-64
2023/10/29 01:03:31;;;;;;;1.55;0.65;;;10.80;99.90;;;;;;5049762;28;20051;-64
2023/10/29 01:05:57;;;;;;;1.33;0.90;;;10.80;99.90;;;;;;5049022;28;20094;-65
2023/10/29 01:08:25;;;;;;;1.27;0.70;;;10.70;99.90;;;;;;5032364;28;20385;-65
2023/10/29 01:10:51;;;;;;;1.35;0.90;;;10.80;99.90;;;;;;5057296;28;20495;-65
2023/10/29 01:13:17;;;;;;;1.08;0.52;;;10.80;99.90;;;;;;5049916;28;20085;-65
2023/10/29 01:15:43;;;;;;;1.35;1.25;;;10.90;99.90;;;;;;5049160;28;20482;-65
2023/10/29 01:18:09;;;;;;;0.55;0.40;;;10.80;99.90;;;;;;5049859;28;20052;-65
2023/10/29 01:20:35;;;;;;;0.95;0.80;;;10.90;99.90;;;;;;5050704;28;20057;-65
2023/10/29 01:23:02;;;;;;;0.65;0.65;;;10.90;99.90;;;;;;5031789;28;20041;-64
2023/10/29 01:25:28;;;;;;;1.27;0.60;;;10.90;99.90;;;;;;5059466;28;20122;-64
2023/10/29 01:27:54;;;;;;;1.42;0.70;;;10.80;99.90;;;;;;5049626;28;20107;-65
2023/10/29 01:30:20;;;;;;;0.40;0.40;;;10.90;99.90;;;;;;5015561;28;20467;-65
2023/10/29 01:32:45;;;;;;;1.20;0.68;;;11.00;99.90;;;;;;5046866;28;20040;-64
2023/10/29 01:35:11;;;;;;;0.70;0.70;;;11.00;99.90;;;;;;5049676;28;20124;-64
2023/10/29 01:37:37;;;;;;;0.50;0.50;;;10.90;99.90;;;;;;5049572;28;20445;-65
2023/10/29 01:40:03;;;;;;;0.90;0.68;;;11.00;99.90;;;;;;5031218;28;20483;-65
2023/10/29 01:42:29;;;;;;;2.05;0.50;;;11.00;99.90;;;;;;5051836;28;20059;-64
2023/10/29 01:44:55;;;;;;;1.52;0.43;;;11.00;99.90;;;;;;5048604;28;20049;-64
2023/10/29 01:47:21;;;;;;;0.60;0.60;;;11.00;99.90;;;;;;5041685;28;20064;-64
2023/10/29 01:49:47;;;;;;;1.83;0.60;;;11.10;99.90;;;;;;5028849;28;20053;-64
2023/10/29 01:52:13;;;;;;;1.17;0.63;;;11.20;99.90;;;;;;5031372;28;20045;-64
2023/10/29 01:54:39;;;;;;;0.57;0.55;;;11.10;99.90;;;;;;5029121;28;20060;-65
2023/10/29 01:57:05;;;;;;;0.45;0.45;;;11.20;99.90;;;;;;5029334;28;20045;-64
2023/10/29 01:59:31;;;;;;;0.63;0.63;;;11.10;99.90;;;;;;5029266;28;20045;-64
2023/10/29 02:01:57;;;;;;;0.40;0.40;;;11.20;99.90;;;;;;5028994;28;20065;-64
2023/10/29 02:04:26;;;;;;;1.20;0.63;;;11.20;99.90;;;;;;5011432;28;20357;-64
2023/10/29 02:06:55;;;;;;;0.50;0.50;;;11.40;99.90;;;;;;5041551;28;20080;-64
2023/10/29 02:09:21;;;;;;;0.50;0.50;;;11.40;99.90;;;;;;5029567;28;20516;-64
2023/10/29 02:11:47;;;;;;;0.57;0.30;;;11.40;99.90;;;;;;5010858;28;20042;-64
2023/10/29 02:14:13;;;;;;;0.50;0.50;;;11.40;99.90;;;;;;5042720;28;20395;-64
2023/10/29 02:16:38;;;;;;;0.50;0.50;;;11.40;99.90;;;;;;5011400;28;20057;-64
2023/10/29 02:19:04;;;;;;;1.05;0.47;;;11.50;99.90;;;;;;5029314;28;20049;-64
2023/10/29 02:21:30;;;;;;;0.80;0.75;;;11.50;99.90;;;;;;5021146;28;20049;-63
2023/10/29 02:23:56;;;;;;;1.45;0.80;;;11.50;99.90;;;;;;5025317;28;20053;-63
2023/10/29 02:26:22;;;;;;;3.65;0.70;;;11.60;99.90;;;;;;5030267;28;20042;-63
2023/10/29 02:28:49;;;;;;;1.10;0.65;;;11.60;99.90;;;;;;5027678;28;20052;-64
2023/10/29 02:31:19;;;;;;;0.60;0.60;;;11.60;99.90;;;;;;5029053;28;20373;-64
2023/10/29 02:33:46;;;;;;;1.55;0.88;;;11.60;99.90;;;;;;5037587;28;20445;-64
2023/10/29 02:36:12;;;;;;;0.63;0.63;;;11.60;99.90;;;;;;5017841;28;20081;-63
2023/10/29 02:38:38;;;;;;;2.58;0.90;;;11.70;99.90;;;;;;5011126;28;20063;-63
2023/10/29 02:41:07;;;;;;;2.55;0.80;;;11.70;99.90;;;;;;5028126;28;20511;-63
2023/10/29 02:43:40;;;;;;;1.70;0.77;;;11.80;99.90;;;;;;5031006;28;20076;-64
2023/10/29 02:46:05;;;;;;;2.60;0.70;;;11.80;99.90;;;;;;5027660;28;20045;-64
2023/10/29 02:48:31;;;;;;;1.75;0.70;;;11.80;99.90;;;;;;5017774;28;20113;-64
2023/10/29 02:50:57;;;;;;;4.70;0.70;;;11.80;99.90;;;;;;5029082;28;20049;-64
2023/10/29 02:53:22;;;;;;;0.50;0.50;;;11.70;99.90;;;;;;5028675;28;20072;-63
2023/10/29 02:55:48;;;;;;;1.38;0.80;;;11.80;99.90;;;;;;5010742;28;20058;-64
2023/10/29 02:58:14;;;;;;;0.47;0.47;;;11.90;99.90;;;;;;5027044;28;20053;-64
2023/10/29 03:00:40;;;;;;;1.73;0.75;;;11.90;99.90;;;;;;5028588;28;20503;-64
2023/10/29 03:03:06;;;;;;;3.15;0.98;;;12.00;99.90;;;;;;5009782;28;20041;-63
2023/10/29 03:05:32;;;;;;;2.15;1.13;;;11.90;99.90;;;;;;5027915;28;20073;-64
2023/10/29 03:07:59;;;;;;;0.65;0.65;;;11.90;99.90;;;;;;5026303;28;20081;-63
2023/10/29 03:10:26;;;;;;;2.50;0.68;;;12.00;99.90;;;;;;5010021;28;20053;-64
2023/10/29 03:12:51;;;;;;;1.88;0.60;;;11.90;99.90;;;;;;5030547;28;20037;-64
2023/10/29 03:15:18;;;;;;;3.50;0.90;;;11.90;99.90;;;;;;5035950;28;20127;-64
2023/10/29 03:17:43;;;;;;;1.77;0.70;;;11.90;99.90;;;;;;5028262;28;20041;-64
2023/10/29 03:20:11;;;;;;;0.80;0.80;;;11.90;99.90;;;;;;5027332;28;20037;-64
2023/10/29 03:22:37;;;;;;;2.45;0.77;;;11.90;99.90;;;;;;5028373;28;20122;-64
2023/10/29 03:25:03;;;;;;;0.98;0.70;;;11.90;99.90;;;;;;5009363;28;20099;-63
2023/10/29 03:27:28;;;;;;;2.42;0.73;;;11.90;99.90;;;;;;5027558;28;20519;-64
2023/10/29 03:29:54;;;;;;;2.10;1.10;;;11.90;99.90;;;;;;5034059;28;20401;-63
2023/10/29 03:32:20;;;;;;;1.17;0.82;;;11.80;99.90;;;;;;5034743;28;20144;-63
2023/10/29 03:34:46;;;;;;;0.65;0.60;;;11.90;99.90;;;;;;5012204;28;20114;-63
2023/10/29 03:37:11;;;;;;;4.38;0.85;;;11.80;99.90;;;;;;5027169;28;20179;-63
2023/10/29 03:39:37;;;;;;;3.20;1.00;;;11.80;99.90;;;;;;5009513;28;20191;-64
2023/10/29 03:42:03;;;;;;;0.77;0.77;;;11.90;99.90;;;;;;5037267;28;20037;-63
2023/10/29 03:44:29;;;;;;;2.83;0.82;;;11.90;99.90;;;;;;5033732;28;20045;-63
2023/10/29 03:46:55;;;;;;;1.38;0.55;;;11.80;99.90;;;;;;5008589;28;20061;-64
2023/10/29 03:49:21;;;;;;;0.60;0.60;;;12.00;99.90;;;;;;5027361;28;20046;-63
2023/10/29 03:51:47;;;;;;;2.75;0.60;;;11.90;99.90;;;;;;5030769;28;20044;-64
2023/10/29 03:54:13;;;;;;;1.10;0.60;;;12.00;99.90;;;;;;5030567;28;20128;-63
2023/10/29 03:56:39;;;;;;;1.05;0.63;;;12.00;99.90;;;;;;5027791;28;20128;-63
2023/10/29 03:59:05;;;;;;;2.53;0.70;;;11.90;99.90;;;;;;5026421;28;20080;-64
2023/10/29 04:01:31;;;;;;;1.23;0.40;;;11.90;99.90;;;;;;5010264;28;20118;-64
2023/10/29 04:03:57;;;;;;;1.08;0.70;;;12.00;99.90;;;;;;5035393;28;20052;-63
2023/10/29 04:06:22;;;;;;;1.20;0.70;;;12.00;99.90;;;;;;5027040;28;20108;-63
2023/10/29 04:08:48;;;;;;;1.08;0.73;;;11.90;99.90;;;;;;5026732;28;20124;-63
2023/10/29 04:11:14;;;;;;;1.27;0.60;;;11.90;99.90;;;;;;5027017;28;20033;-63
2023/10/29 04:13:40;;;;;;;0.70;0.63;;;12.00;99.90;;;;;;5027852;28;20049;-63
2023/10/29 04:16:06;;;;;;;1.33;0.70;;;11.90;99.90;;;;;;5026628;28;20047;-63
2023/10/29 04:18:33;;;;;;;2.70;0.85;;;12.00;99.90;;;;;;5027255;28;20236;-63
2023/10/29 04:21:06;;;;;;;1.27;0.60;;;11.90;99.90;;;;;;5025908;28;20077;-63
2023/10/29 04:23:32;;;;;;;0.50;0.50;;;12.00;99.90;;;;;;5028771;28;20541;-64
2023/10/29 04:25:58;;;;;;;0.90;0.60;;;12.00;99.90;;;;;;5028614;28;20041;-63
2023/10/29 04:28:23;;;;;;;2.90;0.60;;;12.00;99.90;;;;;;5026974;28;20125;-63
2023/10/29 04:30:49;;;;;;;2.58;0.65;;;12.10;99.90;;;;;;5026911;28;20527;-63
2023/10/29 04:33:15;;;;;;;1.50;0.80;;;12.10;99.90;;;;;;4992321;28;20084;-63
2023/10/29 04:35:41;;;;;;;2.40;0.40;;;12.20;99.90;;;;;;5026413;28;20045;-63
2023/10/29 04:38:07;;;;;;;0.50;0.50;;;12.10;99.90;;;;;;5026317;28;20080;-63
2023/10/29 04:40:32;;;;;;;2.72;0.43;;;12.20;99.90;;;;;;5026720;28;20048;-63
2023/10/29 04:42:58;;;;;;;3.03;0.68;;;12.10;99.90;;;;;;5011070;28;20047;-64
2023/10/29 04:45:24;;;;;;;0.60;0.60;;;12.20;99.90;;;;;;5008930;28;20045;-63
2023/10/29 04:47:50;;;;;;;2.75;0.52;;;12.30;99.90;;;;;;5026327;28;20085;-63
2023/10/29 04:50:15;;;;;;;0.77;0.57;;;12.20;99.90;;;;;;5026184;28;20555;-64
2023/10/29 04:52:41;;;;;;;1.77;0.55;;;12.30;99.90;;;;;;5008597;28;20045;-64
2023/10/29 04:55:08;;;;;;;1.13;0.73;;;12.20;99.90;;;;;;5027741;28;20049;-64
2023/10/29 04:57:35;;;;;;;0.65;0.50;;;12.30;99.90;;;;;;5009162;28;20812;-64
2023/10/29 05:00:01;;;;;;;1.45;0.88;;;12.30;99.90;;;;;;5025827;28;20136;-63
2023/10/29 05:02:27;;;;;;;1.83;0.57;;;12.30;99.90;;;;;;5028699;28;20295;-64
2023/10/29 05:04:53;;;;;;;2.70;0.43;;;12.40;99.90;;;;;;5030087;28;20053;-64
2023/10/29 05:07:19;;;;;;;2.08;0.73;;;12.40;99.90;;;;;;5028479;28;20049;-64
2023/10/29 05:09:45;;;;;;;2.10;0.70;;;12.40;99.90;;;;;;5008363;28;20045;-64
2023/10/29 05:12:11;;;;;;;0.88;0.47;;;12.40;99.90;;;;;;5008075;28;20053;-64
2023/10/29 05:14:37;;;;;;;3.17;0.65;;;12.40;99.90;;;;;;5012329;28;20088;-64
2023/10/29 05:17:02;;;;;;;1.00;0.40;;;12.50;99.90;;;;;;5030570;28;20086;-64
2023/10/29 05:19:28;;;;;;;0.88;0.50;;;12.40;99.90;;;;;;5029953;28;20034;-64
2023/10/29 05:21:54;;;;;;;4.00;0.88;;;12.50;99.90;;;;;;5044670;28;20054;-64
2023/10/29 05:24:23;;;;;;;1.30;0.50;;;12.50;99.90;;;;;;5030162;28;20049;-64
2023/10/29 05:26:48;;;;;;;3.92;0.90;;;12.40;99.90;;;;;;5029495;28;20457;-64
2023/10/29 05:29:14;;;;;;;0.68;0.68;;;12.50;99.90;;;;;;5030768;28;20046;-65
2023/10/29 05:31:40;;;;;;;5.75;0.82;;;12.40;99.90;;;;;;5029404;28;20488;-65
2023/10/29 05:34:06;;;;;;;3.67;0.95;;;12.40;99.90;;;;;;5029299;28;20037;-65
2023/10/29 05:36:32;;;;;;;3.60;0.70;;;12.40;99.90;;;;;;5012345;28;20510;-64
2023/10/29 05:38:58;;;;;;;2.30;0.60;;;12.50;99.90;;;;;;5021123;28;20049;-64
2023/10/29 05:41:23;;;;;;;0.80;0.43;;;12.40;99.90;;;;;;5015904;28;20119;-64
2023/10/29 05:43:49;;;;;;;0.38;0.38;;;12.40;99.90;;;;;;5028827;28;20413;-65
2023/10/29 05:46:16;;;;;;;2.13;0.40;;;12.40;99.90;;;;;;5029791;28;20590;-65
2023/10/29 05:48:42;;;;;;;0.50;0.30;;;12.40;99.90;;;;;;5033036;28;20128;-65
2023/10/29 05:51:12;;;;;;;4.88;0.85;;;12.40;99.90;;;;;;5034818;28;20124;-66
2023/10/29 05:53:39;;;;;;;2.58;0.50;;;12.40;99.90;;;;;;5029408;28;20049;-66
2023/10/29 05:56:05;;;;;;;7.43;0.68;;;12.30;99.90;;;;;;5010889;28;20561;-66
2023/10/29 05:58:31;;;;;;;10.38;0.50;;;12.40;99.90;;;;;;5029632;28;20049;-65
2023/10/29 06:00:57;;;;;;;1.17;0.30;;;12.40;99.90;;;;;;5011194;28;20132;-65
2023/10/29 06:03:24;;;;;;;1.38;0.43;;;12.30;99.90;;;;;;5015851;28;20052;-65
2023/10/29 06:05:51;;;;;;;2.53;0.30;;;12.30;99.90;;;;;;5029147;28;20388;-64
2023/10/29 06:08:17;;;;;;;1.55;0.20;;;12.30;99.90;;;;;;5039109;28;20052;-64
2023/10/29 06:10:43;;;;;;;4.47;0.28;;;12.10;99.90;;;;;;5029105;28;20087;-64
2023/10/29 06:13:09;;;;;;;1.45;0.52;;;12.10;99.90;;;;;;5028430;28;20407;-64
2023/10/29 06:15:36;;;;;;;1.40;0.35;;;12.00;99.90;;;;;;5029871;28;20115;-64
2023/10/29 06:18:04;;;;;;;1.10;0.28;;;12.00;99.90;;;;;;5010718;28;20057;-64
2023/10/29 06:20:30;;;;;;;0.93;0.30;;;12.00;99.90;;;;;;5029265;28;20057;-64
2023/10/29 06:22:55;;;;;;;1.48;0.43;;;11.90;99.90;;;;;;5028761;28;20148;-64
2023/10/29 06:25:21;;;;;;;5.68;0.40;;;12.00;99.90;;;;;;5028798;28;20041;-64
2023/10/29 06:27:47;;;;;;;0.45;0.30;;;12.00;99.90;;;;;;5028508;28;20399;-64
2023/10/29 06:30:13;;;;;;;2.38;0.40;;;12.00;99.90;;;;;;5039613;28;20061;-64
2023/10/29 06:32:39;;;;;;;1.88;0.52;;;12.00;99.90;;;;;;5028475;28;20053;-64
2023/10/29 06:35:05;;;;;;;1.13;0.28;;;12.00;99.90;;;;;;5028148;28;20452;-64
2023/10/29 06:37:31;;;;;;;3.13;0.63;;;12.00;99.90;;;;;;5011086;28;20128;-64
2023/10/29 06:39:57;;;;;;;0.85;0.50;;;12.00;99.90;;;;;;5036220;28;20492;-64
2023/10/29 06:42:23;;;;;;;1.33;0.50;;;12.00;99.90;;;;;;5028454;28;20053;-64
2023/10/29 06:44:48;;;;;;;7.03;0.55;;;12.00;99.90;;;;;;5037220;28;20045;-64
2023/10/29 06:47:14;;;;;;;6.82;0.43;;;12.00;99.90;;;;;;5016650;28;20348;-64
2023/10/29 06:49:42;;;;;;;3.38;0.50;;;11.90;99.90;;;;;;5020259;28;20099;-64
2023/10/29 06:52:08;;;;;;;1.35;0.60;;;12.00;99.90;;;;;;5027606;28;20053;-63
2023/10/29 06:54:34;;;;;;;1.08;0.20;;;12.00;99.90;;;;;;5029090;28;20064;-63
2023/10/29 06:57:01;;;;;;;1.05;0.40;;;12.10;99.90;;;;;;5027060;28;20042;-63
2023/10/29 06:59:28;;;;;;;0.95;0.32;;;12.10;99.90;;;;;;5029571;28;20037;-64
2023/10/29 07:01:56;;;;;;;0.30;0.30;;;12.00;99.90;;;;;;5012456;28;20128;-63
2023/10/29 07:04:22;;;;;;;0.45;0.43;;;12.00;99.90;;;;;;5017453;28;20049;-64
2023/10/29 07:06:49;;;;;;;3.88;0.60;;;12.10;99.90;;;;;;5033131;28;20033;-64
2023/10/29 07:09:15;;;;;;;0.40;0.30;;;12.20;99.90;;;;;;4995577;28;20045;-64
2023/10/29 07:11:45;;;;;;;0.88;0.30;;;12.20;99.90;;;;;;5041610;28;20099;-64
2023/10/29 07:14:12;;;;;;;1.17;0.40;;;12.30;99.90;;;;;;5006005;28;20029;-64
2023/10/29 07:16:44;;;;;;;2.30;0.20;;;12.30;99.90;;;;;;4997256;28;20045;-64
2023/10/29 07:19:11;;;;;;;1.20;0.20;;;12.30;99.90;;;;;;5035433;28;20049;-63
2023/10/29 07:21:37;;;;;;;1.65;0.47;;;12.30;99.90;;;;;;4993290;28;20053;-63
2023/10/29 07:24:05;;;;;;;7.03;0.47;;;12.50;99.90;;;;;;5037923;28;20087;-64
2023/10/29 07:26:34;;;;;;;3.25;0.30;;;12.40;99.90;;;;;;5031918;28;20495;-64
2023/10/29 07:29:02;;;;;;;0.90;0.30;;;12.50;99.90;;;;;;5033683;28;20034;-64
2023/10/29 07:31:32;;;;;;;2.28;0.20;;;12.50;99.90;;;;;;5028342;28;20280;-64
2023/10/29 07:33:58;;;;;;;2.35;0.45;;;12.50;99.90;;;;;;5028231;28;20037;-64
2023/10/29 07:36:24;;;;;;;3.85;0.45;;;12.50;99.90;;;;;;5027407;28;20502;-63
2023/10/29 07:38:49;;;;;;;3.58;0.50;;;12.50;99.90;;;;;;5029336;28;20047;-63
2023/10/29 07:41:21;;;;;;;3.55;0.20;;;12.60;99.90;;;;;;5029439;28;20499;-63
2023/10/29 07:43:48;;;;;;;1.00;0.40;;;12.70;99.90;;;;;;5026793;28;20514;-63
2023/10/29 07:46:14;;;;;;;3.20;0.32;;;12.80;99.90;;;;;;5027924;28;20041;-64
2023/10/29 07:48:40;;;;;;;1.02;0.47;;;12.80;99.90;;;;;;5026732;28;20112;-64
2023/10/29 07:51:08;;;;;;;2.88;0.40;;;12.80;99.90;;;;;;5029570;28;20408;-63
2023/10/29 07:53:33;;;;;;;9.32;0.35;;;12.90;99.90;;;;;;5026750;28;20045;-63
2023/10/29 07:56:09;;;;;;;3.13;0.40;;;12.90;99.90;;;;;;5026780;28;20488;-63
2023/10/29 07:58:36;;;;;;;0.30;0.30;;;12.90;99.90;;;;;;5028961;28;20041;-63
2023/10/29 08:01:01;;;;;;;4.70;0.50;;;12.80;99.90;;;;;;5036753;28;20037;-63
2023/10/29 08:03:27;;;;;;;6.30;0.40;;;12.80;99.90;;;;;;5025523;28;20547;-63
2023/10/29 08:05:53;;;;;;;2.58;0.70;;;12.80;99.90;;;;;;5027047;28;20033;-63
2023/10/29 08:08:19;;;;;;;0.35;0.30;;;12.80;99.90;;;;;;5046295;28;20087;-63
2023/10/29 08:10:45;;;;;;;5.35;0.85;;;13.00;99.90;;;;;;5023543;28;20041;-63
2023/10/29 08:13:11;;;;;;;2.20;0.45;;;13.10;99.90;;;;;;5044735;28;20483;-63
2023/10/29 08:15:37;;;;;;;1.08;0.30;;;13.10;99.90;;;;;;5024740;28;20510;-63
2023/10/29 08:18:03;;;;;;;0.20;0.20;;;13.10;99.90;;;;;;5035732;28;20044;-64
2023/10/29 08:20:28;;;;;;;1.50;0.47;;;13.10;99.90;;;;;;5037317;28;20048;-63
2023/10/29 08:22:55;;;;;;;0.95;0.30;;;13.20;99.90;;;;;;5013252;28;20049;-64
2023/10/29 08:25:21;;;;;;;5.05;0.65;;;13.30;99.90;;;;;;5027091;28;20045;-64
2023/10/29 08:27:47;;;;;;;1.98;0.50;;;13.30;99.90;;;;;;5026068;28;20531;-63
2023/10/29 08:30:14;;;;;;;2.65;0.60;;;13.40;99.90;;;;;;5024780;28;20046;-63
2023/10/29 08:32:39;;;;;;;1.17;0.65;;;13.50;99.90;;;;;;5026640;28;20504;-63
2023/10/29 08:35:09;;;;;;;1.20;0.88;;;13.50;99.90;;;;;;5007962;28;20127;-63
2023/10/29 08:37:35;;;;;;;4.10;0.37;;;13.50;99.90;;;;;;5026740;28;20128;-63
2023/10/29 08:40:01;;;;;;;1.75;0.57;;;13.40;99.90;;;;;;5025892;28;20303;-64
2023/10/29 08:42:29;;;;;;;0.80;0.20;;;13.40;99.90;;;;;;5027045;28;20049;-63
2023/10/29 08:44:59;;;;;;;0.55;0.28;;;13.40;99.90;;;;;;5008617;28;20490;-63
2023/10/29 08:47:29;;;;;;;5.13;0.60;;;13.40;99.90;;;;;;5026456;28;20057;-63
2023/10/29 08:49:55;;;;;;;1.30;0.30;;;13.50;99.90;;;;;;5027925;28;20049;-63
2023/10/29 08:52:20;;;;;;;4.38;0.50;;;13.50;99.90;;;;;;5029771;28;20050;-63
2023/10/29 08:54:47;;;;;;;2.97;0.60;;;13.50;99.90;;;;;;5030235;28;20052;-63
2023/10/29 08:57:13;;;;;;;3.85;0.50;;;13.50;99.90;;;;;;5029170;28;20044;-63
2023/10/29 08:59:39;;;;;;;2.08;0.60;;;13.60;99.90;;;;;;5005592;28;20104;-64
2023/10/29 09:02:06;;;;;;;1.48;0.52;;;13.60;99.90;;;;;;5009280;28;20030;-63
2023/10/29 09:04:39;;;;;;;0.95;0.10;;;13.60;99.90;;;;;;5025165;28;20056;-63
2023/10/29 09:07:05;;;;;;;2.10;0.75;;;13.70;99.90;;;;;;5027396;28;20037;-63
2023/10/29 09:09:31;;;;;;;0.70;0.32;;;13.70;99.90;;;;;;4998458;28;20574;-63
2023/10/29 09:11:57;;;;;;;9.93;0.60;;;13.70;99.90;;;;;;5030563;28;20494;-63
2023/10/29 09:14:23;;;;;;;1.65;0.40;;;13.80;99.90;;;;;;5039139;28;20049;-63
2023/10/29 09:16:49;;;;;;;2.10;0.55;;;13.90;99.90;;;;;;5007581;28;20487;-63
2023/10/29 09:19:15;;;;;;;4.05;0.63;;;14.00;99.90;;;;;;5010740;28;20092;-63
2023/10/29 09:21:41;;;;;;;5.43;0.65;;;14.00;99.90;;;;;;5025819;28;20046;-63
2023/10/29 09:24:07;;;;;;;0.98;0.47;;;14.00;99.90;;;;;;5029133;28;20056;-63
2023/10/29 09:26:33;;;;;;;0.90;0.25;;;14.00;99.90;;;;;;5023692;28;20037;-63
2023/10/29 09:29:05;;;;;;;1.35;0.50;;;14.00;99.90;;;;;;5012289;28;20544;-63
2023/10/29 09:31:31;;;;;;;2.90;0.70;;;14.00;99.90;;;;;;5029204;28;20045;-63
2023/10/29 09:33:57;;;;;;;2.70;0.60;;;14.00;99.90;;;;;;5015709;28;20394;-63
2023/10/29 09:36:22;;;;;;;2.20;0.40;;;14.10;99.90;;;;;;5028588;28;20107;-63
2023/10/29 09:38:48;;;;;;;0.85;0.35;;;14.10;99.90;;;;;;5005591;28;20045;-63
2023/10/29 09:41:18;;;;;;;2.88;0.68;;;14.00;99.90;;;;;;5031822;28;20045;-63
2023/10/29 09:43:44;;;;;;;1.88;0.47;;;14.00;99.90;;;;;;5030919;28;20039;-63
2023/10/29 09:46:11;;;;;;;1.13;0.30;;;14.00;99.90;;;;;;5029493;28;20045;-63
2023/10/29 09:48:42;;;;;;;1.77;0.68;;;14.10;99.90;;;;;;5043653;28;20052;-63
2023/10/29 09:51:08;;;;;;;1.77;0.50;;;14.10;99.90;;;;;;5038074;28;20044;-63
2023/10/29 09:53:36;;;;;;;1.17;0.70;;;14.20;99.90;;;;;;5039956;28;20041;-63
2023/10/29 09:56:05;;;;;;;2.13;0.50;;;14.20;99.90;;;;;;5033914;28;20041;-63
2023/10/29 09:58:30;;;;;;;1.65;0.35;;;14.30;99.90;;;;;;5008190;28;20484;-63
2023/10/29 10:00:58;;;;;;;2.80;0.70;;;14.40;99.90;;;;;;5025324;28;20041;-63
2023/10/29 10:03:27;;;;;;;1.85;1.10;;;14.40;99.90;;;;;;5028099;28;20049;-63
2023/10/29 10:05:53;;;;;;;2.70;0.57;;;14.40;99.90;;;;;;5015364;28;20045;-62
2023/10/29 10:08:30;;;;;;;2.05;0.45;;;14.40;99.90;;;;;;5029124;28;20084;-63
2023/10/29 10:10:57;;;;;;;3.58;1.10;;;14.50;99.90;;;;;;5010666;28;20131;-62
2023/10/29 10:13:43;;;;;;;2.35;0.60;;;14.60;99.90;;;;;;5028936;28;20094;-62
2023/10/29 10:16:10;;;;;;;4.88;1.15;;;14.60;99.90;;;;;;5029575;28;20062;-62
2023/10/29 10:18:59;;;;;;;4.95;0.55;;;14.60;99.90;;;;;;5015189;28;20507;-62
2023/10/29 10:21:43;;;;;;;6.70;0.63;;;14.80;99.90;;;;;;5016222;28;20460;-63
2023/10/29 10:24:10;;;;;;;4.82;0.50;;;14.70;99.90;;;;;;5020561;28;20579;-63
2023/10/29 10:26:38;;;;;;;5.53;0.70;;;14.70;99.90;;;;;;5012519;28;20133;-62
2023/10/29 10:29:08;;;;;;;3.95;0.68;;;14.70;99.90;;;;;;5038414;28;20045;-63
2023/10/29 10:31:37;;;;;;;1.65;0.57;;;14.80;99.90;;;;;;5044624;28;20463;-63
2023/10/29 10:34:10;;;;;;;4.10;0.40;;;14.80;99.90;;;;;;5026004;28;20041;-63
2023/10/29 10:36:36;;;;;;;7.68;0.57;;;14.90;99.90;;;;;;5015059;28;20058;-63
2023/10/29 10:39:02;;;;;;;0.60;0.32;;;14.90;99.90;;;;;;5034284;28;20033;-63
2023/10/29 10:41:42;;;;;;;3.78;0.68;;;15.00;99.90;;;;;;5029064;28;20041;-63
2023/10/29 10:44:21;;;;;;;3.08;0.50;;;15.00;99.90;;;;;;5030307;28;20089;-62
2023/10/29 10:46:49;;;;;;;3.00;0.63;;;14.90;99.90;;;;;;5008500;28;20065;-63
2023/10/29 10:49:15;;;;;;;2.53;0.32;;;14.80;99.90;;;;;;5036921;28;20137;-62
2023/10/29 10:51:41;;;;;;;3.80;0.50;;;14.70;99.90;;;;;;4991236;28;20045;-63
2023/10/29 10:54:07;;;;;;;3.78;0.80;;;14.70;99.90;;;;;;5017623;28;20057;-62
2023/10/29 10:56:37;;;;;;;2.67;0.65;;;14.60;99.90;;;;;;5037627;28;20041;-63
2023/10/29 10:59:09;;;;;;;2.58;0.65;;;14.50;99.90;;;;;;5030007;28;20381;-62
2023/10/29 11:01:38;;;;;;;1.77;0.57;;;14.40;99.90;;;;;;5008724;28;20045;-63
2023/10/29 11:04:05;;;;;;;5.65;0.60;;;14.40;99.90;;;;;;5028463;28;20143;-63
2023/10/29 11:06:31;;;;;;;4.65;0.65;;;14.40;99.90;;;;;;5030542;28;20143;-63
2023/10/29 11:08:59;;;;;;;2.58;0.63;;;14.50;99.90;;;;;;5031856;28;20123;-63
2023/10/29 11:11:38;;;;;;;3.38;0.63;;;14.50;99.90;;;;;;5041982;28;20510;-62
2023/10/29 11:14:15;;;;;;;1.07;0.60;;;14.60;99.90;;;;;;5040757;28;20063;-62
2023/10/29 11:16:48;;;;;;;1.73;0.47;;;14.60;99.90;;;;;;5029290;28;20808;-62
2023/10/29 11:19:37;;;;;;;3.35;1.00;;;14.80;99.90;;;;;;5031362;28;20041;-62
2023/10/29 11:22:20;;;;;;;3.80;0.73;;;14.70;99.90;;;;;;5021829;28;20051;-61
2023/10/29 11:25:05;;;;;;;3.45;0.80;;;14.70;99.90;;;;;;5013543;28;20088;-61
2023/10/29 11:27:47;;;;;;;2.70;0.77;;;14.70;99.90;;;;;;5039199;28;20041;-62
2023/10/29 11:30:15;;;;;;;2.70;0.90;;;14.60;99.90;;;;;;5019445;28;20049;-61
2023/10/29 11:32:41;;;;;;;7.20;1.10;;;14.60;99.90;;;;;;5025659;28;20404;-62
2023/10/29 11:35:19;;;;;;;7.38;0.85;;;14.60;99.90;;;;;;5008828;28;20420;-61
2023/10/29 11:37:45;;;;;;;4.68;0.52;;;14.70;99.90;;;;;;5026471;28;20437;-61
2023/10/29 11:40:23;;;;;;;3.90;0.60;;;14.70;99.90;;;;;;5007385;28;20484;-61
2023/10/29 11:42:50;;;;;;;6.10;0.82;;;14.80;99.90;;;;;;5027625;28;20049;-61
2023/10/29 11:45:31;;;;;;;2.88;0.77;;;14.80;99.90;;;;;;5011959;28;20057;-62
2023/10/29 11:48:07;;;;;;;2.03;0.45;;;14.90;99.90;;;;;;5008533;28;20062;-61
2023/10/29 11:50:33;;;;;;;2.90;0.63;;;14.90;99.90;;;;;;5012876;28;20519;-61
2023/10/29 11:52:59;;;;;;;2.72;0.90;;;14.90;99.90;;;;;;5002626;28;20558;-62
2023/10/29 11:55:39;;;;;;;7.72;0.98;;;15.00;99.90;;;;;;5028190;28;20049;-61
2023/10/29 11:58:05;;;;;;;;;;;14.80;99.90;;;;;;5009421;28;20511;-62
2023/10/29 12:00:41;;;;;;;6.60;0.82;;;14.80;99.90;;;;;;5027988;28;19927;-62
2023/10/29 12:03:11;;;;;;;6.75;1.00;;;14.60;99.90;;;;;;5026780;28;20199;-62
2023/10/29 12:05:37;;;;;;;6.25;1.08;;;14.60;99.90;;;;;;5030689;28;20120;-62
2023/10/29 12:08:04;;;;;;;2.55;0.70;;;14.60;99.90;;;;;;5032935;28;20129;-62
2023/10/29 12:10:43;;;;;;;1.13;0.60;;;14.60;99.90;;;;;;5008957;28;20136;-62
2023/10/29 12:13:09;;;;;;;4.90;0.68;;;14.60;99.90;;;;;;5024975;28;20060;-62
2023/10/29 12:15:35;;;;;;;4.30;0.90;;;14.60;99.90;;;;;;5025725;28;20045;-62
2023/10/29 12:18:00;;;;;;;2.30;0.63;;;14.60;99.90;;;;;;5027113;28;20045;-62
2023/10/29 12:20:28;;;;;;;8.18;1.10;;;14.60;99.90;;;;;;4992004;28;20397;-62
2023/10/29 12:23:00;;;;;;;5.60;1.05;;;14.60;99.90;;;;;;5027608;28;20782;-62
2023/10/29 12:25:27;;;;;;;5.10;0.98;;;14.50;99.90;;;;;;5017331;28;20049;-62
2023/10/29 12:27:53;;;;;;;3.03;0.82;;;14.50;99.90;;;;;;5025784;28;20034;-62
2023/10/29 12:30:49;;;;;;;4.90;0.90;;;14.50;99.90;;;;;;5028261;28;20473;-62
2023/10/29 12:33:21;;;;;;;2.15;0.68;;;14.50;99.90;;;;;;5011359;28;20053;-62
2023/10/29 12:35:48;;;;;;;8.77;1.20;;;14.60;99.90;;;;;;5010212;28;20060;-62
2023/10/29 12:38:14;;;;;;;1.60;0.70;;;14.50;99.90;;;;;;5026266;28;20104;-62
2023/10/29 12:41:12;;;;;;;3.42;1.20;;;14.50;99.90;;;;;;5026463;28;20039;-62
2023/10/29 12:43:42;;;;;;;3.95;0.52;;;14.50;99.90;;;;;;5020242;28;20078;-62
2023/10/29 12:46:12;;;;;;;2.50;0.67;;;14.50;99.90;;;;;;5028871;28;20041;-62
2023/10/29 12:49:03;;;;;;;4.95;1.08;;;14.50;99.90;;;;;;5026449;28;20752;-62